createdAt,value
2018-11-29T00:00:28.029Z,8.80
2018-11-29T00:02:55.484Z,10.58
2018-11-29T00:05:22.840Z,8.48
2018-11-29T00:07:50.137Z,9.38
2018-11-29T00:10:18.530Z,8.43
2018-11-29T00:12:45.850Z,9.00
2018-11-29T00:15:14.239Z,8.90
2018-11-29T00:17:41.589Z,7.60
2018-11-29T00:20:15.570Z,7.10
2018-11-29T00:22:43.989Z,7.12
2018-11-29T00:25:13.498Z,6.65
2018-11-29T00:27:41.301Z,7.10
2018-11-29T00:30:12.518Z,9.28
2018-11-29T00:32:40.546Z,8.98
2018-11-29T00:35:13.459Z,6.80
2018-11-29T00:37:41.201Z,7.62
2018-11-29T00:41:37.849Z,7.00
2018-11-29T00:44:05.364Z,7.58
2018-11-29T00:46:33.005Z,7.83
2018-11-29T00:49:00.517Z,8.70
2018-11-29T00:51:28.082Z,7.72
2018-11-29T00:53:55.629Z,8.33
2018-11-29T00:56:23.147Z,8.80
2018-11-29T00:58:50.652Z,9.00
2018-11-29T01:01:18.393Z,9.53
2018-11-29T01:03:45.974Z,10.45
2018-11-29T01:06:17.135Z,8.65
2018-11-29T01:08:44.645Z,10.00
2018-11-29T01:11:12.169Z,9.68
2018-11-29T01:13:39.841Z,9.65
2018-11-29T01:16:07.735Z,8.93
2018-11-29T01:18:35.282Z,8.75
2018-11-29T01:21:02.733Z,9.30
2018-11-29T01:23:30.202Z,7.72
2018-11-29T01:25:57.664Z,10.10
2018-11-29T01:28:25.143Z,5.53
2018-11-29T01:30:52.692Z,7.12
2018-11-29T01:33:20.193Z,7.05
2018-11-29T01:35:47.893Z,7.75
2018-11-29T01:38:15.397Z,7.62
2018-11-29T01:40:44.308Z,5.60
2018-11-29T01:43:11.785Z,8.85
2018-11-29T01:45:39.325Z,8.35
2018-11-29T01:48:07.077Z,7.72
2018-11-29T01:50:34.545Z,7.10
2018-11-29T01:53:02.060Z,7.17
2018-11-29T01:55:29.550Z,6.75
2018-11-29T01:57:57.039Z,5.70
2018-11-29T02:00:24.709Z,7.75
2018-11-29T02:02:52.453Z,6.70
2018-11-29T02:05:19.999Z,8.38
2018-11-29T02:07:47.752Z,13.90
2018-11-29T02:10:21.555Z,6.28
2018-11-29T02:12:49.121Z,6.85
2018-11-29T02:15:16.702Z,6.33
2018-11-29T02:17:44.249Z,8.53
2018-11-29T02:20:14.545Z,5.55
2018-11-29T02:22:42.121Z,8.68
2018-11-29T02:25:09.613Z,6.12
2018-11-29T02:27:37.133Z,7.65
2018-11-29T02:30:13.682Z,9.60
2018-11-29T02:32:41.283Z,7.67
2018-11-29T02:35:08.814Z,8.13
2018-11-29T02:37:36.314Z,10.23
2018-11-29T02:40:06.923Z,7.33
2018-11-29T02:42:34.467Z,6.40
2018-11-29T02:45:01.961Z,6.72
2018-11-29T02:47:29.466Z,7.28
2018-11-29T02:49:56.974Z,8.05
2018-11-29T02:52:24.498Z,9.58
2018-11-29T02:54:52.013Z,6.70
2018-11-29T02:57:19.693Z,7.42
2018-11-29T02:59:47.366Z,6.90
2018-11-29T03:02:14.840Z,6.62
2018-11-29T03:04:42.523Z,7.12
2018-11-29T03:07:10.009Z,7.42
2018-11-29T03:09:37.537Z,7.60
2018-11-29T03:12:05.245Z,8.53
2018-11-29T03:14:32.701Z,6.47
2018-11-29T03:17:00.203Z,9.28
2018-11-29T03:19:27.745Z,7.72
2018-11-29T03:21:55.255Z,9.50
2018-11-29T03:24:22.780Z,8.83
2018-11-29T03:26:50.389Z,9.08
2018-11-29T03:29:17.950Z,9.20
2018-11-29T03:31:45.521Z,10.68
2018-11-29T03:34:13.103Z,10.15
2018-11-29T03:36:40.745Z,8.25
2018-11-29T03:39:08.276Z,9.33
2018-11-29T03:41:36.007Z,8.18
2018-11-29T03:44:03.582Z,9.33
2018-11-29T03:46:31.106Z,8.65
2018-11-29T03:48:58.592Z,8.50
2018-11-29T03:51:26.100Z,8.00
2018-11-29T03:53:53.621Z,9.25
2018-11-29T03:56:21.077Z,8.93
2018-11-29T03:58:48.733Z,8.40
2018-11-29T04:01:16.242Z,7.55
2018-11-29T04:03:43.717Z,7.53
2018-11-29T04:06:11.157Z,8.75
2018-11-29T04:08:38.637Z,8.10
2018-11-29T04:11:06.119Z,8.98
2018-11-29T04:13:33.716Z,9.48
2018-11-29T04:16:01.184Z,7.67
2018-11-29T04:18:28.617Z,9.13
2018-11-29T04:20:56.107Z,10.30
2018-11-29T04:23:23.625Z,8.65
2018-11-29T04:25:51.596Z,8.85
2018-11-29T04:28:19.059Z,7.70
2018-11-29T04:30:46.540Z,9.08
2018-11-29T04:33:14.174Z,8.58
2018-11-29T04:35:41.646Z,9.08
2018-11-29T04:38:09.214Z,8.28
2018-11-29T04:40:36.716Z,10.45
2018-11-29T04:43:04.300Z,8.55
2018-11-29T04:45:44.397Z,10.35
2018-11-29T04:48:11.917Z,8.45
2018-11-29T04:50:39.401Z,7.97
2018-11-29T04:53:07.097Z,10.28
2018-11-29T04:55:34.550Z,9.30
2018-11-29T04:58:01.998Z,8.73
2018-11-29T05:00:29.473Z,7.70
2018-11-29T05:02:56.944Z,9.63
2018-11-29T05:05:24.446Z,7.97
2018-11-29T05:07:52.005Z,8.95
2018-11-29T05:10:19.469Z,9.18
2018-11-29T05:12:47.029Z,8.40
2018-11-29T05:15:14.511Z,7.33
2018-11-29T05:17:43.636Z,10.20
2018-11-29T05:20:11.110Z,8.13
2018-11-29T05:22:38.570Z,9.45
2018-11-29T05:25:07.346Z,8.80
2018-11-29T05:27:34.957Z,8.05
2018-11-29T05:30:02.502Z,9.08
2018-11-29T05:32:29.956Z,9.70
2018-11-29T05:34:57.429Z,9.00
2018-11-29T05:37:24.953Z,8.55
2018-11-29T05:39:52.440Z,9.20
2018-11-29T05:42:19.881Z,10.65
2018-11-29T05:44:49.258Z,7.92
2018-11-29T05:47:16.724Z,8.88
2018-11-29T05:49:44.202Z,10.10
2018-11-29T05:52:11.665Z,7.75
2018-11-29T05:54:39.143Z,11.10
2018-11-29T05:57:06.824Z,7.05
2018-11-29T05:59:34.382Z,11.50
2018-11-29T06:02:01.907Z,11.33
2018-11-29T06:04:29.448Z,10.13
2018-11-29T06:06:56.882Z,9.35
2018-11-29T06:09:24.422Z,9.08
2018-11-29T06:11:52.098Z,8.55
2018-11-29T06:14:19.629Z,8.73
2018-11-29T06:16:47.321Z,9.25
2018-11-29T06:19:14.765Z,10.15
2018-11-29T06:21:42.233Z,10.20
2018-11-29T06:24:13.535Z,10.20
2018-11-29T06:26:37.468Z,10.72
2018-11-29T06:29:05.054Z,9.85
2018-11-29T06:31:32.657Z,10.00
2018-11-29T06:34:00.186Z,8.58
2018-11-29T06:36:27.692Z,10.00
2018-11-29T06:38:57.798Z,9.90
2018-11-29T06:41:25.395Z,10.55
2018-11-29T06:43:53.050Z,9.65
2018-11-29T06:46:20.557Z,9.65
2018-11-29T06:48:48.446Z,12.40
2018-11-29T06:51:15.962Z,10.68
2018-11-29T06:53:51.560Z,9.28
2018-11-29T06:56:19.259Z,10.50
2018-11-29T06:58:46.931Z,9.55
2018-11-29T07:01:14.484Z,12.05
2018-11-29T07:03:42.064Z,9.55
2018-11-29T07:06:09.795Z,9.90
2018-11-29T07:08:37.271Z,10.95
2018-11-29T07:11:04.748Z,8.63
2018-11-29T07:13:32.388Z,9.95
2018-11-29T07:15:59.829Z,10.03
2018-11-29T07:18:27.349Z,11.70
2018-11-29T07:21:06.472Z,10.00
2018-11-29T07:23:33.944Z,9.10
2018-11-29T07:26:01.425Z,10.03
2018-11-29T07:28:28.885Z,11.00
2018-11-29T07:30:56.390Z,11.22
2018-11-29T07:33:23.816Z,10.40
2018-11-29T07:35:51.319Z,9.43
2018-11-29T07:38:18.780Z,10.58
2018-11-29T07:40:46.276Z,11.15
2018-11-29T07:43:13.849Z,11.10
2018-11-29T07:45:41.442Z,9.68
2018-11-29T07:48:09.104Z,9.38
2018-11-29T07:50:36.678Z,8.93
2018-11-29T07:53:04.585Z,10.03
2018-11-29T07:55:32.093Z,8.45
2018-11-29T07:57:59.668Z,9.15
2018-11-29T08:00:27.283Z,8.70
2018-11-29T08:02:59.026Z,9.15
2018-11-29T08:05:26.540Z,9.33
2018-11-29T08:07:54.098Z,7.97
2018-11-29T08:10:21.553Z,8.40
2018-11-29T08:12:49.108Z,8.33
2018-11-29T08:15:23.646Z,10.30
2018-11-29T08:17:51.190Z,9.63
2018-11-29T08:20:19.677Z,9.00
2018-11-29T08:22:47.159Z,7.62
2018-11-29T08:25:14.670Z,9.83
2018-11-29T08:27:42.122Z,8.78
2018-11-29T08:30:15.501Z,9.98
2018-11-29T08:32:42.942Z,9.35
2018-11-29T08:35:11.391Z,6.72
2018-11-29T08:37:39.933Z,8.23
2018-11-29T08:40:09.153Z,7.95
2018-11-29T08:42:39.084Z,6.53
2018-11-29T08:45:08.394Z,8.85
2018-11-29T08:47:35.866Z,8.05
2018-11-29T08:50:03.495Z,9.30
2018-11-29T08:52:30.935Z,8.60
2018-11-29T08:55:06.240Z,6.33
2018-11-29T08:57:33.833Z,10.32
2018-11-29T09:00:01.331Z,7.62
2018-11-29T09:02:28.810Z,7.05
2018-11-29T09:04:56.286Z,7.80
2018-11-29T09:07:27.585Z,8.58
2018-11-29T09:09:55.053Z,7.90
2018-11-29T09:12:22.629Z,6.03
2018-11-29T09:14:50.088Z,6.22
2018-11-29T09:17:17.546Z,7.25
2018-11-29T09:19:45.001Z,5.97
2018-11-29T09:22:14.235Z,4.97
2018-11-29T09:24:41.708Z,7.22
2018-11-29T09:27:09.277Z,5.08
2018-11-29T09:29:36.812Z,3.95
2018-11-29T09:32:04.421Z,5.40
2018-11-29T09:34:37.854Z,4.08
2018-11-29T09:37:05.412Z,5.12
2018-11-29T09:39:32.972Z,4.08
2018-11-29T09:42:00.488Z,4.30
2018-11-29T09:44:27.969Z,4.08
2018-11-29T09:46:55.456Z,5.03
2018-11-29T09:49:24.710Z,4.53
2018-11-29T09:51:52.326Z,11.97
2018-11-29T09:54:19.830Z,5.50
2018-11-29T09:56:47.662Z,7.37
2018-11-29T09:59:15.149Z,10.40
2018-11-29T10:01:44.148Z,4.17
2018-11-29T10:04:15.147Z,6.70
2018-11-29T10:06:42.633Z,4.85
2018-11-29T10:09:10.237Z,4.28
2018-11-29T10:11:37.762Z,4.97
2018-11-29T10:14:05.274Z,4.22
2018-11-29T10:19:05.235Z,6.25
2018-11-29T10:21:32.713Z,5.55
2018-11-29T10:24:00.218Z,4.15
2018-11-29T10:26:27.701Z,4.30
2018-11-29T10:28:55.377Z,5.35
2018-11-29T10:31:26.426Z,6.05
2018-11-29T10:33:53.898Z,3.47
2018-11-29T10:36:21.374Z,3.27
2018-11-29T10:38:49.127Z,6.87
2018-11-29T10:41:16.571Z,4.72
2018-11-29T10:43:44.067Z,5.05
2018-11-29T10:46:15.879Z,3.42
2018-11-29T10:48:42.359Z,5.55
2018-11-29T10:51:09.797Z,6.28
2018-11-29T10:53:38.189Z,3.85
2018-11-29T10:56:04.737Z,5.10
2018-11-29T10:58:32.226Z,5.25
2018-11-29T11:01:11.301Z,4.78
2018-11-29T11:03:38.782Z,7.87
2018-11-29T11:06:06.325Z,3.83
2018-11-29T11:08:34.067Z,3.40
2018-11-29T11:11:06.336Z,4.20
2018-11-29T11:13:35.278Z,10.48
2018-11-29T11:16:02.738Z,5.83
2018-11-29T11:18:30.275Z,4.55
2018-11-29T11:20:57.855Z,4.22
2018-11-29T11:23:25.430Z,6.08
2018-11-29T11:25:58.864Z,3.57
2018-11-29T11:28:26.369Z,4.50
2018-11-29T11:30:53.903Z,5.45
2018-11-29T11:33:21.502Z,4.20
2018-11-29T11:35:49.066Z,3.80
2018-11-29T11:38:18.694Z,3.95
2018-11-29T11:40:46.201Z,5.13
2018-11-29T11:43:13.833Z,3.10
2018-11-29T11:45:41.494Z,3.67
2018-11-29T11:48:09.049Z,4.63
2018-11-29T11:50:37.960Z,5.65
2018-11-29T11:53:09.027Z,4.53
2018-11-29T11:55:36.682Z,6.60
2018-11-29T11:58:04.557Z,3.63
2018-11-29T12:00:32.053Z,3.07
2018-11-29T12:03:04.476Z,4.42
2018-11-29T12:05:33.652Z,3.97
2018-11-29T12:08:01.154Z,2.60
2018-11-29T12:10:28.641Z,4.27
2018-11-29T12:12:56.146Z,4.87
2018-11-29T12:15:23.677Z,2.95
2018-11-29T12:17:55.475Z,4.33
2018-11-29T12:20:22.941Z,4.45
2018-11-29T12:22:50.442Z,4.37
2018-11-29T12:25:19.073Z,4.95
2018-11-29T12:27:46.673Z,5.75
2018-11-29T12:30:23.814Z,5.25
2018-11-29T12:32:53.868Z,3.47
2018-11-29T12:35:21.433Z,3.83
2018-11-29T12:37:49.068Z,7.03
2018-11-29T12:40:16.636Z,8.13
2018-11-29T12:42:44.121Z,4.63
2018-11-29T12:45:13.523Z,6.00
2018-11-29T12:47:41.349Z,5.05
2018-11-29T12:50:10.345Z,6.53
2018-11-29T12:52:37.791Z,6.10
2018-11-29T12:55:06.324Z,4.75
2018-11-29T12:57:37.216Z,5.90
2018-11-29T13:00:16.662Z,7.00
2018-11-29T13:03:01.141Z,6.03
2018-11-29T13:05:28.516Z,8.83
2018-11-29T13:07:55.932Z,5.60
2018-11-29T13:10:25.306Z,7.78
2018-11-29T13:12:52.983Z,5.90
2018-11-29T13:15:28.150Z,7.03
2018-11-29T13:17:58.401Z,10.30
2018-11-29T13:20:25.725Z,8.18
2018-11-29T13:22:53.074Z,6.83
2018-11-29T13:25:21.557Z,6.97
2018-11-29T13:27:48.973Z,8.43
2018-11-29T13:30:23.094Z,7.67
2018-11-29T13:32:53.310Z,6.28
2018-11-29T13:35:22.986Z,6.97
2018-11-29T13:37:51.672Z,8.60
2018-11-29T13:42:50.762Z,9.98
2018-11-29T13:45:18.073Z,6.40
2018-11-29T13:47:45.391Z,4.40
2018-11-29T13:50:16.342Z,5.95
2018-11-29T13:52:43.721Z,5.75
2018-11-29T13:55:15.541Z,7.45
2018-11-29T13:57:44.097Z,5.78
2018-11-29T14:00:13.656Z,7.20
2018-11-29T14:02:41.257Z,6.20
2018-11-29T14:05:09.491Z,6.12
2018-11-29T14:07:42.425Z,6.72
2018-11-29T14:10:12.797Z,6.28
2018-11-29T14:12:40.461Z,5.28
2018-11-29T14:15:14.379Z,5.75
2018-11-29T14:17:43.678Z,5.35
2018-11-29T14:20:12.028Z,4.75
2018-11-29T14:22:39.579Z,7.25
2018-11-29T14:25:09.194Z,6.70
2018-11-29T14:27:36.725Z,7.47
2018-11-29T14:30:09.666Z,5.85
2018-11-29T14:32:37.175Z,4.83
2018-11-29T14:35:05.529Z,8.78
2018-11-29T14:37:33.267Z,5.72
2018-11-29T14:40:00.770Z,5.83
2018-11-29T14:42:33.230Z,8.75
2018-11-29T14:45:00.933Z,7.67
2018-11-29T14:47:28.422Z,5.85
2018-11-29T14:49:56.003Z,7.75
2018-11-29T14:52:23.498Z,5.75
2018-11-29T14:57:25.073Z,7.72
2018-11-29T14:59:52.578Z,7.60
2018-11-29T15:02:20.081Z,5.58
2018-11-29T15:04:47.826Z,7.65
2018-11-29T15:07:20.504Z,5.90
2018-11-29T15:09:48.174Z,6.28
2018-11-29T15:12:15.666Z,5.55
2018-11-29T15:14:43.124Z,6.00
2018-11-29T15:17:10.595Z,6.35
2018-11-29T15:19:38.097Z,4.50
2018-11-29T15:22:07.480Z,6.22
2018-11-29T15:24:34.967Z,6.17
2018-11-29T15:27:02.453Z,4.78
2018-11-29T15:29:29.976Z,4.50
2018-11-29T15:31:57.465Z,5.28
2018-11-29T15:34:24.951Z,5.05
2018-11-29T15:36:53.281Z,6.25
2018-11-29T15:39:20.773Z,4.55
2018-11-29T15:41:48.374Z,4.25
2018-11-29T15:44:15.905Z,4.30
2018-11-29T15:46:43.414Z,4.55
2018-11-29T15:49:10.923Z,4.87
2018-11-29T15:51:43.879Z,3.98
2018-11-29T15:54:11.397Z,5.22
2018-11-29T15:56:38.881Z,4.35
2018-11-29T15:59:06.516Z,4.80
2018-11-29T16:01:34.058Z,4.35
2018-11-29T16:04:03.979Z,5.35
2018-11-29T16:06:31.539Z,6.05
2018-11-29T16:08:59.042Z,5.85
2018-11-29T16:11:26.536Z,3.90
2018-11-29T16:13:54.025Z,4.55
2018-11-29T16:16:21.470Z,7.45
2018-11-29T16:18:52.550Z,5.50
2018-11-29T16:21:20.038Z,8.65
2018-11-29T16:23:47.537Z,7.30
2018-11-29T16:26:15.050Z,12.53
2018-11-29T16:28:42.505Z,6.12
2018-11-29T16:31:10.027Z,7.08
2018-11-29T16:33:42.297Z,5.65
2018-11-29T16:36:09.824Z,6.10
2018-11-29T16:38:37.293Z,5.12
2018-11-29T16:41:04.939Z,6.15
2018-11-29T16:43:32.472Z,6.67
2018-11-29T16:45:59.964Z,4.75
2018-11-29T16:48:30.949Z,6.62
2018-11-29T16:50:58.476Z,5.80
2018-11-29T16:53:26.003Z,6.70
2018-11-29T16:55:53.726Z,6.22
2018-11-29T16:58:27.965Z,6.17
2018-11-29T17:00:55.486Z,4.85
2018-11-29T17:03:22.973Z,7.45
2018-11-29T17:05:50.466Z,6.90
2018-11-29T17:08:17.928Z,5.78
2018-11-29T17:10:45.464Z,9.18
2018-11-29T17:13:18.415Z,6.08
2018-11-29T17:15:45.953Z,5.78
2018-11-29T17:18:13.443Z,6.28
2018-11-29T17:20:40.915Z,6.53
2018-11-29T17:23:09.343Z,5.72
2018-11-29T17:25:36.880Z,5.17
2018-11-29T17:28:08.594Z,6.35
2018-11-29T17:30:36.681Z,6.37
2018-11-29T17:33:04.813Z,5.90
2018-11-29T17:35:32.289Z,5.50
2018-11-29T17:37:59.822Z,6.10
2018-11-29T17:40:27.368Z,6.03
2018-11-29T17:42:58.667Z,5.92
2018-11-29T17:45:27.198Z,7.28
2018-11-29T17:47:57.328Z,5.90
2018-11-29T17:50:27.206Z,7.35
2018-11-29T17:52:54.805Z,9.58
2018-11-29T17:55:27.452Z,8.75
2018-11-29T17:57:55.120Z,7.70
2018-11-29T18:00:23.967Z,6.60
2018-11-29T18:02:51.493Z,7.15
2018-11-29T18:05:19.019Z,6.65
2018-11-29T18:07:50.729Z,7.67
2018-11-29T18:10:22.349Z,7.03
2018-11-29T18:12:51.428Z,9.25
2018-11-29T18:15:22.384Z,7.58
2018-11-29T18:17:53.517Z,7.42
2018-11-29T18:20:20.977Z,7.00
2018-11-29T18:22:48.607Z,6.65
2018-11-29T18:25:16.551Z,6.30
2018-11-29T18:27:48.553Z,5.80
2018-11-29T18:30:21.741Z,6.65
2018-11-29T18:32:49.371Z,6.35
2018-11-29T18:35:16.988Z,6.45
2018-11-29T18:37:44.471Z,7.37
2018-11-29T18:40:15.181Z,5.95
2018-11-29T18:42:43.309Z,7.55
2018-11-29T18:45:12.033Z,9.38
2018-11-29T18:47:40.034Z,6.60
2018-11-29T18:50:10.138Z,11.75
2018-11-29T18:52:37.753Z,8.70
2018-11-29T18:55:08.954Z,6.90
2018-11-29T18:57:36.438Z,7.62
2018-11-29T19:00:10.602Z,5.55
2018-11-29T19:02:38.137Z,5.25
2018-11-29T19:05:09.980Z,7.62
2018-11-29T19:07:37.445Z,6.60
2018-11-29T19:10:12.793Z,8.05
2018-11-29T19:12:51.825Z,7.60
2018-11-29T19:15:19.330Z,6.40
2018-11-29T19:17:46.857Z,8.98
2018-11-29T19:20:14.417Z,11.12
2018-11-29T19:22:42.005Z,8.15
2018-11-29T19:25:16.544Z,7.72
2018-11-29T19:27:44.054Z,6.33
2018-11-29T19:30:20.049Z,8.68
2018-11-29T19:32:53.047Z,7.47
2018-11-29T19:35:22.492Z,9.08
2018-11-29T19:37:49.921Z,6.85
2018-11-29T19:40:17.442Z,8.05
2018-11-29T19:42:44.930Z,7.30
2018-11-29T19:45:13.666Z,7.58
2018-11-29T19:47:43.337Z,8.75
2018-11-29T19:50:16.789Z,7.42
2018-11-29T19:52:45.585Z,9.30
2018-11-29T19:55:22.420Z,6.45
2018-11-29T19:57:49.986Z,6.53
2018-11-29T20:00:17.550Z,7.25
2018-11-29T20:02:45.903Z,7.47
2018-11-29T20:05:13.510Z,6.20
2018-11-29T20:07:41.066Z,5.90
2018-11-29T20:10:12.929Z,6.55
2018-11-29T20:12:40.498Z,6.50
2018-11-29T20:15:14.062Z,6.35
2018-11-29T20:17:41.417Z,5.97
2018-11-29T20:20:12.786Z,6.25
2018-11-29T20:22:40.686Z,8.20
2018-11-29T20:25:12.495Z,6.62
2018-11-29T20:27:40.013Z,6.78
2018-11-29T20:30:10.847Z,6.17
2018-11-29T20:32:42.765Z,8.33
2018-11-29T20:35:10.981Z,5.83
2018-11-29T20:37:38.533Z,6.72
2018-11-29T20:40:12.166Z,7.75
2018-11-29T20:42:41.794Z,6.67
2018-11-29T20:45:12.054Z,6.87
2018-11-29T20:47:39.855Z,6.08
2018-11-29T20:50:14.598Z,7.28
2018-11-29T20:52:37.297Z,9.48
2018-11-29T20:55:08.791Z,6.95
2018-11-29T20:57:36.294Z,5.92
2018-11-29T21:00:05.416Z,7.87
2018-11-29T21:02:32.910Z,5.83
2018-11-29T21:05:00.418Z,5.97
2018-11-29T21:07:30.438Z,7.55
2018-11-29T21:10:02.880Z,6.58
2018-11-29T21:12:25.617Z,8.98
2018-11-29T21:14:53.228Z,6.50
2018-11-29T21:17:20.790Z,8.98
2018-11-29T21:19:48.529Z,6.85
2018-11-29T21:22:18.505Z,5.87
2018-11-29T21:24:46.029Z,6.45
2018-11-29T21:27:13.771Z,6.92
2018-11-29T21:29:41.285Z,6.05
2018-11-29T21:32:09.092Z,6.10
2018-11-29T21:34:38.245Z,6.28
2018-11-29T21:37:05.768Z,7.17
2018-11-29T21:39:33.296Z,5.50
2018-11-29T21:42:00.781Z,5.80
2018-11-29T21:44:28.254Z,5.30
2018-11-29T21:47:00.834Z,5.45
2018-11-29T21:49:28.341Z,6.67
2018-11-29T21:51:55.853Z,5.60
2018-11-29T21:54:23.338Z,7.28
2018-11-29T21:56:50.882Z,5.70
2018-11-29T21:59:20.887Z,7.72
2018-11-29T22:01:48.565Z,5.78
2018-11-29T22:04:16.050Z,8.00
2018-11-29T22:06:43.549Z,6.80
2018-11-29T22:09:11.048Z,6.62
2018-11-29T22:11:38.542Z,9.45
2018-11-29T22:14:06.004Z,7.08
2018-11-29T22:16:33.546Z,4.92
2018-11-29T22:19:01.047Z,8.08
2018-11-29T22:21:28.534Z,5.35
2018-11-29T22:23:56.063Z,7.65
2018-11-29T22:26:23.544Z,7.10
2018-11-29T22:28:51.022Z,8.33
2018-11-29T22:31:18.497Z,7.35
2018-11-29T22:33:46.022Z,8.55
2018-11-29T22:36:14.639Z,7.05
2018-11-29T22:38:44.445Z,7.75
2018-11-29T22:41:09.700Z,8.65
2018-11-29T22:43:38.857Z,6.95
2018-11-29T22:46:06.321Z,6.50
2018-11-29T22:48:34.388Z,6.80
2018-11-29T22:51:02.044Z,6.65
2018-11-29T22:53:29.569Z,6.37
2018-11-29T22:55:57.044Z,7.15
2018-11-29T22:58:24.509Z,7.42
2018-11-29T23:00:52.558Z,10.35
2018-11-29T23:03:20.438Z,7.10
2018-11-29T23:05:48.072Z,7.75
2018-11-29T23:08:15.594Z,6.85
2018-11-29T23:10:43.065Z,6.45
2018-11-29T23:13:10.544Z,5.95
2018-11-29T23:15:37.988Z,7.05
2018-11-29T23:18:05.820Z,5.90
2018-11-29T23:20:33.257Z,4.70
2018-11-29T23:23:00.714Z,7.80
2018-11-29T23:25:28.442Z,6.20
2018-11-29T23:27:55.882Z,5.28
2018-11-29T23:30:23.386Z,5.15
2018-11-29T23:32:50.821Z,6.85
2018-11-29T23:35:18.345Z,5.05
2018-11-29T23:37:45.790Z,7.40
2018-11-29T23:40:17.025Z,6.50
2018-11-29T23:42:44.992Z,5.60
2018-11-29T23:45:12.666Z,8.13
2018-11-29T23:47:40.633Z,4.53
2018-11-29T23:50:10.418Z,7.17
2018-11-29T23:52:37.934Z,5.12
2018-11-29T23:55:07.390Z,6.08
2018-11-29T23:57:34.905Z,5.28
